Main page
METAR-TAF:

METAR-TAF

Airports :

Siegerland Airport

Siegen, Germany

latitude: 50-42-28N, longitude: 008-04-59E, elevation: 602 m

Current weather observation

The report was made 13 minutes ago, at 13:50 UTC
Wind 5 kt from the West/Southwest
Temperature 11°C
Humidity 87%
Pressure 1020 hPa
Visibility 10 km or more
Few clouds at a height of 1700 ft
Scattered clouds at a height of 3800 ft
Broken clouds at a height of 5200 ft

METAR: EDGS 221350Z 25005KT 9999 FEW017 SCT038 BKN052 11/09 Q1020

Time: 16:03 (14:03 UTC)

Forecast

The report was made 3 hours and 3 minutes ago, at 11:00 UTC
Forecast valid from 22 at 12 UTC to 22 at 21 UTC
Wind 10 kt from the West/Southwest
Visibility 10 km or more
Scattered clouds at a height of 2500 ft
Becoming
from 22 at 16 UTC to 22 at 19 UTC
Wind 5 kt from the Southwest

TAF: EDGS 221100Z 2212/2221 25010KT 9999 SCT025 BECMG 2216/2219 23005KT

Weather observations and forecasts of more than 4000 airports (METAR and TAF reports).

The available stations are represented by yellow and red dots on the map.

Hover mouse over dot to see the name of the station.

Then click to see weather observations and forecasts.

To change the map : click on the green buttons with a black cross to zoom in, on the green button with a dash to zoom out, or on the green arrows for adjacent maps.


METAR-TAF: